createdAt,value
2023-03-01T00:00:17.404Z,21.31
2023-03-01T00:04:17.476Z,21.30
2023-03-01T00:08:17.543Z,21.31
2023-03-01T00:12:17.594Z,21.31
2023-03-01T00:16:17.782Z,21.28
2023-03-01T00:20:17.739Z,21.30
2023-03-01T00:24:17.851Z,21.27
2023-03-01T00:28:17.946Z,21.28
2023-03-01T00:32:18.119Z,21.28
2023-03-01T00:36:18.175Z,21.27
2023-03-01T00:40:18.165Z,21.28
2023-03-01T00:44:18.236Z,21.27
2023-03-01T00:48:18.321Z,21.28
2023-03-01T00:52:18.436Z,21.27
2023-03-01T00:56:18.502Z,21.27
2023-03-01T01:00:18.596Z,21.24
2023-03-01T01:04:18.640Z,21.25
2023-03-01T01:08:18.759Z,21.25
2023-03-01T01:12:18.849Z,21.27
2023-03-01T01:16:18.930Z,21.27
2023-03-01T01:20:19.020Z,21.23
2023-03-01T01:24:19.106Z,21.25
2023-03-01T01:28:19.188Z,21.25
2023-03-01T01:32:19.359Z,21.27
2023-03-01T01:36:19.385Z,21.24
2023-03-01T01:40:19.444Z,21.23
2023-03-01T01:44:19.539Z,21.21
2023-03-01T01:48:20.214Z,21.25
2023-03-01T01:52:19.731Z,21.21
2023-03-01T01:56:19.898Z,21.24
2023-03-01T02:00:19.901Z,21.23
2023-03-01T02:04:19.999Z,21.18
2023-03-01T02:08:20.113Z,21.23
2023-03-01T02:12:20.179Z,21.23
2023-03-01T02:16:20.262Z,21.20
2023-03-01T02:20:20.379Z,21.23
2023-03-01T02:24:20.478Z,21.20
2023-03-01T02:28:20.574Z,21.21
2023-03-01T02:32:20.704Z,21.20
2023-03-01T02:36:20.804Z,21.21
2023-03-01T02:40:20.866Z,21.18
2023-03-01T02:44:20.967Z,21.21
2023-03-01T02:48:21.106Z,21.21
2023-03-01T02:52:21.238Z,21.18
2023-03-01T02:56:21.310Z,21.18
2023-03-01T03:00:21.410Z,21.18
2023-03-01T03:04:21.510Z,21.18
2023-03-01T03:08:21.683Z,21.18
2023-03-01T03:12:21.769Z,21.18
2023-03-01T03:16:21.954Z,21.17
2023-03-01T03:20:22.022Z,21.14
2023-03-01T03:24:22.124Z,21.18
2023-03-01T03:28:22.220Z,21.17
2023-03-01T03:32:22.389Z,21.14
2023-03-01T03:36:22.417Z,21.15
2023-03-01T03:40:22.548Z,21.15
2023-03-01T03:44:22.649Z,21.14
2023-03-01T03:48:22.750Z,21.14
2023-03-01T03:52:22.889Z,21.17
2023-03-01T03:56:22.966Z,21.14
2023-03-01T04:00:23.120Z,21.13
2023-03-01T04:04:23.249Z,21.15
2023-03-01T04:08:23.403Z,21.14
2023-03-01T04:12:23.512Z,21.13
2023-03-01T04:16:23.718Z,21.13
2023-03-01T04:20:23.785Z,21.13
2023-03-01T04:24:23.895Z,21.10
2023-03-01T04:28:24.065Z,21.10
2023-03-01T04:32:24.184Z,21.11
2023-03-01T04:36:24.435Z,21.10
2023-03-01T04:40:24.413Z,21.11
2023-03-01T04:44:24.590Z,21.11
2023-03-01T04:48:24.689Z,21.10
2023-03-01T04:52:24.834Z,21.13
2023-03-01T04:56:24.991Z,21.11
2023-03-01T05:00:25.118Z,21.11
2023-03-01T05:04:25.308Z,21.10
2023-03-01T05:08:25.388Z,21.10
2023-03-01T05:12:25.533Z,21.11
2023-03-01T05:16:25.646Z,21.11
2023-03-01T05:20:25.784Z,21.05
2023-03-01T05:24:25.940Z,21.07
2023-03-01T05:28:26.081Z,21.07
2023-03-01T05:32:26.243Z,21.07
2023-03-01T05:36:26.343Z,21.08
2023-03-01T05:40:26.463Z,21.05
2023-03-01T05:44:26.659Z,21.08
2023-03-01T05:48:26.726Z,21.11
2023-03-01T05:52:26.823Z,21.14
2023-03-01T05:56:26.860Z,21.18
2023-03-01T06:00:26.939Z,21.24
2023-03-01T06:04:26.990Z,21.28
2023-03-01T06:08:26.999Z,21.30
2023-03-01T06:12:26.976Z,21.34
2023-03-01T06:16:26.944Z,21.40
2023-03-01T06:20:26.942Z,21.40
2023-03-01T06:24:26.915Z,21.41
2023-03-01T06:28:26.941Z,21.42
2023-03-01T06:32:27.046Z,21.45
2023-03-01T06:36:27.309Z,21.46
2023-03-01T06:40:27.276Z,21.46
2023-03-01T06:44:27.849Z,21.46
2023-03-01T06:48:27.844Z,21.49
2023-03-01T06:52:27.835Z,21.48
2023-03-01T06:56:27.823Z,21.48
2023-03-01T07:00:27.855Z,21.48
2023-03-01T07:04:28.347Z,21.48
2023-03-01T07:08:27.914Z,21.49
2023-03-01T07:12:28.019Z,21.48
2023-03-01T07:16:28.145Z,21.46
2023-03-01T07:20:28.120Z,21.49
2023-03-01T07:24:28.196Z,21.51
2023-03-01T07:28:28.234Z,21.46
2023-03-01T07:32:28.334Z,21.45
2023-03-01T07:36:28.577Z,21.48
2023-03-01T07:40:29.354Z,21.45
2023-03-01T07:44:28.464Z,21.46
2023-03-01T07:48:28.843Z,21.49
2023-03-01T07:52:28.558Z,21.48
2023-03-01T07:56:28.874Z,21.48
2023-03-01T08:00:28.837Z,21.52
2023-03-01T08:04:28.758Z,21.48
2023-03-01T08:08:28.837Z,21.51
2023-03-01T08:12:29.360Z,21.48
2023-03-01T08:16:29.580Z,21.52
2023-03-01T08:20:29.370Z,21.42
2023-03-01T08:24:29.240Z,21.10
2023-03-01T08:28:29.310Z,20.77
2023-03-01T08:32:29.936Z,20.52
2023-03-01T08:36:29.754Z,20.35
2023-03-01T08:40:29.840Z,20.52
2023-03-01T08:44:29.739Z,20.72
2023-03-01T08:48:29.894Z,20.94
2023-03-01T08:52:30.370Z,21.13
2023-03-01T08:56:30.347Z,21.31
2023-03-01T09:00:30.361Z,21.45
2023-03-01T09:04:30.381Z,21.56
2023-03-01T09:08:30.603Z,21.72
2023-03-01T09:12:30.886Z,21.85
2023-03-01T09:16:31.030Z,21.93
2023-03-01T09:20:30.797Z,22.03
2023-03-01T09:24:30.832Z,22.12
2023-03-01T09:28:30.971Z,22.20
2023-03-01T09:32:31.041Z,22.29
2023-03-01T09:36:31.243Z,22.32
2023-03-01T09:40:30.914Z,22.16
2023-03-01T09:44:31.386Z,21.97
2023-03-01T09:48:31.396Z,21.78
2023-03-01T09:52:31.392Z,21.31
2023-03-01T09:56:31.666Z,21.49
2023-03-01T10:00:31.887Z,21.56
2023-03-01T10:04:31.672Z,21.68
2023-03-01T10:08:31.785Z,21.74
2023-03-01T10:12:31.910Z,21.79
2023-03-01T10:16:32.047Z,21.97
2023-03-01T10:20:32.416Z,22.03
2023-03-01T10:24:32.203Z,22.09
2023-03-01T10:28:32.239Z,22.12
2023-03-01T10:32:32.429Z,22.09
2023-03-01T10:36:32.719Z,22.05
2023-03-01T10:40:32.410Z,22.03
2023-03-01T10:44:32.930Z,22.09
2023-03-01T10:48:33.757Z,21.91
2023-03-01T10:52:32.940Z,21.74
2023-03-01T10:56:32.744Z,21.61
2023-03-01T11:00:32.905Z,21.44
2023-03-01T11:04:33.009Z,21.11
2023-03-01T11:08:34.908Z,20.63
2023-03-01T11:12:33.138Z,20.47
2023-03-01T11:16:33.338Z,20.25
2023-03-01T11:20:33.386Z,20.19
2023-03-01T11:24:33.572Z,20.29
2023-03-01T11:28:33.737Z,20.54
2023-03-01T11:32:33.969Z,20.77
2023-03-01T11:36:33.967Z,20.97
2023-03-01T11:40:34.430Z,21.11
2023-03-01T11:44:34.440Z,21.23
2023-03-01T11:48:48.492Z,21.33
2023-03-01T11:52:35.178Z,21.40
2023-03-01T11:56:34.156Z,21.46
2023-03-01T12:00:34.431Z,21.46
2023-03-01T12:04:34.141Z,21.48
2023-03-01T12:08:34.447Z,21.52
2023-03-01T12:12:33.991Z,21.52
2023-03-01T12:16:39.248Z,21.54
2023-03-01T12:20:35.463Z,21.56
2023-03-01T12:24:33.889Z,21.56
2023-03-01T12:28:33.933Z,21.56
2023-03-01T12:32:35.431Z,21.56
2023-03-01T12:36:34.139Z,21.58
2023-03-01T12:40:33.825Z,21.62
2023-03-01T12:44:33.722Z,21.59
2023-03-01T12:48:33.686Z,21.61
2023-03-01T12:52:33.960Z,21.58
2023-03-01T12:56:33.926Z,21.59
2023-03-01T13:00:33.648Z,21.58
2023-03-01T13:04:35.300Z,21.58
2023-03-01T13:08:33.965Z,21.58
2023-03-01T13:12:33.552Z,21.59
2023-03-01T13:16:33.833Z,21.59
2023-03-01T13:20:33.461Z,21.56
2023-03-01T13:24:33.433Z,21.56
2023-03-01T13:28:33.395Z,21.58
2023-03-01T13:32:44.705Z,21.59
2023-03-01T13:36:34.744Z,21.62
2023-03-01T13:40:33.297Z,21.64
2023-03-01T13:44:33.272Z,21.62
2023-03-01T13:48:33.258Z,21.64
2023-03-01T13:52:33.197Z,21.61
2023-03-01T13:56:33.524Z,21.61
2023-03-01T14:00:33.180Z,21.65
2023-03-01T14:04:33.081Z,21.64
2023-03-01T14:08:33.065Z,21.66
2023-03-01T14:12:33.021Z,21.68
2023-03-01T14:16:33.337Z,21.69
2023-03-01T14:20:32.953Z,21.69
2023-03-01T14:24:33.095Z,21.71
2023-03-01T14:28:33.319Z,21.72
2023-03-01T14:32:33.689Z,21.72
2023-03-01T14:36:33.804Z,21.75
2023-03-01T14:40:33.934Z,21.78
2023-03-01T14:44:34.081Z,21.79
2023-03-01T14:48:34.290Z,21.82
2023-03-01T14:52:34.500Z,21.76
2023-03-01T14:56:34.659Z,21.78
2023-03-01T15:00:34.862Z,21.79
2023-03-01T15:04:35.117Z,21.78
2023-03-01T15:08:35.250Z,21.75
2023-03-01T15:12:35.474Z,22.15
2023-03-01T15:16:35.614Z,22.20
2023-03-01T15:20:35.724Z,22.84
2023-03-01T15:24:35.842Z,22.84
2023-03-01T15:28:35.982Z,23.08
2023-03-01T15:32:36.039Z,22.72
2023-03-01T15:36:36.140Z,22.60
2023-03-01T15:40:36.280Z,22.67
2023-03-01T15:44:43.312Z,22.57
2023-03-01T15:48:37.675Z,22.44
2023-03-01T15:52:36.899Z,22.21
2023-03-01T15:56:36.835Z,22.07
2023-03-01T16:00:36.803Z,21.93
2023-03-01T16:04:36.792Z,21.81
2023-03-01T16:08:36.738Z,21.78
2023-03-01T16:12:36.695Z,21.69
2023-03-01T16:16:36.711Z,21.68
2023-03-01T16:20:36.677Z,21.62
2023-03-01T16:24:36.645Z,21.58
2023-03-01T16:28:36.587Z,21.59
2023-03-01T16:32:36.607Z,21.58
2023-03-01T16:36:36.480Z,21.56
2023-03-01T16:40:36.555Z,21.58
2023-03-01T16:44:36.698Z,21.55
2023-03-01T16:48:36.768Z,21.54
2023-03-01T16:52:36.786Z,21.52
2023-03-01T16:56:36.905Z,21.52
2023-03-01T17:00:36.969Z,21.55
2023-03-01T17:04:37.079Z,21.54
2023-03-01T17:08:37.224Z,21.54
2023-03-01T17:12:37.343Z,21.52
2023-03-01T17:16:37.461Z,21.55
2023-03-01T17:20:37.514Z,21.52
2023-03-01T17:24:37.564Z,21.52
2023-03-01T17:28:37.660Z,21.54
2023-03-01T17:32:37.841Z,21.49
2023-03-01T17:36:37.813Z,21.52
2023-03-01T17:40:37.727Z,21.49
2023-03-01T17:44:37.724Z,21.49
2023-03-01T17:48:37.732Z,21.48
2023-03-01T17:52:37.716Z,21.48
2023-03-01T17:56:37.710Z,21.48
2023-03-01T18:00:37.652Z,21.46
2023-03-01T18:04:37.632Z,21.46
2023-03-01T18:08:37.662Z,21.44
2023-03-01T18:12:37.645Z,21.48
2023-03-01T18:16:37.643Z,21.45
2023-03-01T18:20:37.656Z,21.41
2023-03-01T18:24:37.632Z,21.42
2023-03-01T18:28:37.622Z,21.44
2023-03-01T18:32:37.636Z,21.42
2023-03-01T18:36:38.380Z,21.42
2023-03-01T18:40:37.694Z,21.40
2023-03-01T18:44:37.735Z,21.41
2023-03-01T18:48:37.703Z,21.38
2023-03-01T18:52:37.738Z,21.38
2023-03-01T18:56:37.741Z,21.41
2023-03-01T19:00:37.746Z,21.38
2023-03-01T19:04:37.808Z,21.40
2023-03-01T19:08:37.790Z,21.34
2023-03-01T19:12:37.814Z,21.34
2023-03-01T19:16:37.902Z,21.35
2023-03-01T19:20:39.500Z,21.34
2023-03-01T19:24:38.006Z,21.34
2023-03-01T19:28:39.614Z,21.34
2023-03-01T19:32:38.001Z,21.34
2023-03-01T19:36:38.051Z,21.34
2023-03-01T19:40:38.048Z,21.35
2023-03-01T19:44:38.105Z,21.37
2023-03-01T19:48:38.133Z,21.34
2023-03-01T19:52:38.200Z,21.33
2023-03-01T19:56:38.239Z,21.31
2023-03-01T20:00:38.251Z,21.31
2023-03-01T20:04:38.301Z,21.31
2023-03-01T20:08:38.567Z,21.33
2023-03-01T20:12:38.364Z,21.31
2023-03-01T20:16:38.495Z,21.30
2023-03-01T20:20:38.543Z,21.30
2023-03-01T20:24:38.562Z,21.30
2023-03-01T20:28:38.619Z,21.30
2023-03-01T20:32:38.747Z,21.27
2023-03-01T20:36:38.957Z,21.28
2023-03-01T20:40:38.845Z,21.28
2023-03-01T20:44:38.832Z,21.27
2023-03-01T20:48:38.952Z,21.25
2023-03-01T20:52:47.084Z,21.27
2023-03-01T20:56:39.915Z,21.24
2023-03-01T21:00:38.917Z,21.24
2023-03-01T21:04:38.868Z,21.25
2023-03-01T21:08:38.809Z,21.25
2023-03-01T21:12:38.812Z,21.23
2023-03-01T21:16:38.915Z,21.24
2023-03-01T21:20:38.944Z,21.23
2023-03-01T21:24:39.021Z,21.24
2023-03-01T21:28:39.095Z,21.23
2023-03-01T21:32:39.287Z,21.24
2023-03-01T21:36:39.283Z,21.23
2023-03-01T21:40:39.374Z,21.20
2023-03-01T21:44:39.487Z,21.20
2023-03-01T21:48:40.077Z,21.20
2023-03-01T21:52:39.668Z,21.21
2023-03-01T21:56:39.763Z,21.20
2023-03-01T22:00:39.930Z,21.18
2023-03-01T22:04:39.961Z,21.20
2023-03-01T22:08:40.040Z,21.17
2023-03-01T22:12:40.631Z,21.18
2023-03-01T22:16:40.372Z,21.18
2023-03-01T22:20:40.318Z,21.17
2023-03-01T22:24:40.414Z,21.17
2023-03-01T22:28:40.568Z,21.18
2023-03-01T22:32:40.557Z,21.18
2023-03-01T22:36:40.705Z,21.18
2023-03-01T22:40:40.805Z,21.17
2023-03-01T22:44:40.909Z,21.17
2023-03-01T22:48:40.988Z,21.17
2023-03-01T22:52:41.118Z,21.15
2023-03-01T22:56:41.225Z,21.14
2023-03-01T23:00:41.331Z,21.15
2023-03-01T23:04:41.409Z,21.17
2023-03-01T23:08:41.528Z,21.15
2023-03-01T23:12:41.640Z,21.17
2023-03-01T23:16:41.759Z,21.15
2023-03-01T23:20:41.887Z,21.15
2023-03-01T23:24:42.044Z,21.14
2023-03-01T23:28:42.095Z,21.17
2023-03-01T23:32:42.165Z,21.14
2023-03-01T23:36:42.292Z,21.14
2023-03-01T23:40:42.413Z,21.17
2023-03-01T23:44:42.539Z,21.14
2023-03-01T23:48:42.630Z,21.14
2023-03-01T23:52:42.764Z,21.15
2023-03-01T23:56:42.943Z,21.13
